createdAt,value
2023-01-05T00:01:10.036Z,3.88
2023-01-05T00:03:37.325Z,3.20
2023-01-05T00:06:07.252Z,2.95
2023-01-05T00:08:37.354Z,3.60
2023-01-05T00:11:34.576Z,3.38
2023-01-05T00:14:20.159Z,3.63
2023-01-05T00:17:05.885Z,3.58
2023-01-05T00:19:51.568Z,3.67
2023-01-05T00:22:32.560Z,3.65
2023-01-05T00:25:04.765Z,3.60
2023-01-05T00:27:36.487Z,3.33
2023-01-05T00:30:04.104Z,4.00
2023-01-05T00:32:30.647Z,4.88
2023-01-05T00:34:58.526Z,3.15
2023-01-05T00:37:31.723Z,3.22
2023-01-05T00:39:58.539Z,3.30
2023-01-05T00:42:25.607Z,3.20
2023-01-05T00:44:52.322Z,3.67
2023-01-05T00:47:18.871Z,4.60
2023-01-05T00:49:45.776Z,3.85
2023-01-05T00:52:12.438Z,4.80
2023-01-05T00:54:39.055Z,3.65
2023-01-05T00:57:07.210Z,3.40
2023-01-05T00:59:35.004Z,3.40
2023-01-05T01:02:01.679Z,3.55
2023-01-05T01:04:31.009Z,3.83
2023-01-05T01:06:57.713Z,3.35
2023-01-05T01:09:24.390Z,4.35
2023-01-05T01:14:17.423Z,3.70
2023-01-05T01:16:44.132Z,4.32
2023-01-05T01:19:18.567Z,3.47
2023-01-05T01:21:45.561Z,3.50
2023-01-05T01:24:17.813Z,3.80
2023-01-05T01:26:44.385Z,4.15
2023-01-05T01:29:10.973Z,3.83
2023-01-05T01:31:37.766Z,3.50
2023-01-05T01:34:05.177Z,3.28
2023-01-05T01:36:31.830Z,4.10
2023-01-05T01:38:58.407Z,4.15
2023-01-05T01:41:25.086Z,3.58
2023-01-05T01:43:53.873Z,3.25
2023-01-05T01:46:24.549Z,3.63
2023-01-05T01:49:05.654Z,3.10
2023-01-05T01:51:41.422Z,3.55
2023-01-05T01:54:11.131Z,3.70
2023-01-05T01:56:45.723Z,3.00
2023-01-05T01:59:13.421Z,3.05
2023-01-05T02:01:40.873Z,3.25
2023-01-05T02:04:09.628Z,3.55
2023-01-05T02:06:37.473Z,3.15
2023-01-05T02:09:05.591Z,3.38
2023-01-05T02:11:49.765Z,4.05
2023-01-05T02:14:28.469Z,3.92
2023-01-05T02:17:19.990Z,3.65
2023-01-05T02:20:31.398Z,3.00
2023-01-05T02:23:26.266Z,4.20
2023-01-05T02:26:20.061Z,4.05
2023-01-05T02:29:08.891Z,3.92
2023-01-05T02:31:51.338Z,4.13
2023-01-05T02:34:37.352Z,3.53
2023-01-05T02:37:38.270Z,3.35
2023-01-05T02:40:21.143Z,4.10
2023-01-05T02:42:52.165Z,3.92
2023-01-05T02:45:22.522Z,4.30
2023-01-05T02:47:50.359Z,4.35
2023-01-05T02:50:26.299Z,3.50
2023-01-05T02:52:57.914Z,3.70
2023-01-05T02:55:32.942Z,3.42
2023-01-05T02:58:07.926Z,4.10
2023-01-05T03:01:01.081Z,3.40
2023-01-05T03:03:42.213Z,4.43
2023-01-05T03:06:36.042Z,3.33
2023-01-05T03:09:06.103Z,3.90
2023-01-05T03:12:02.936Z,3.63
2023-01-05T03:14:46.124Z,3.38
2023-01-05T03:17:17.455Z,4.10
2023-01-05T03:19:49.468Z,3.00
2023-01-05T03:22:44.593Z,3.50
2023-01-05T03:25:32.517Z,4.43
2023-01-05T03:28:20.785Z,3.17
2023-01-05T03:31:20.376Z,3.22
2023-01-05T03:34:33.701Z,3.60
2023-01-05T03:37:05.936Z,4.35
2023-01-05T03:39:35.581Z,4.15
2023-01-05T03:42:05.372Z,3.72
2023-01-05T03:44:35.864Z,3.42
2023-01-05T03:47:02.648Z,3.97
2023-01-05T03:49:29.478Z,3.33
2023-01-05T03:51:58.825Z,4.22
2023-01-05T03:54:25.432Z,3.65
2023-01-05T03:56:52.030Z,4.13
2023-01-05T03:59:19.359Z,3.45
2023-01-05T04:01:48.643Z,3.92
2023-01-05T04:04:15.198Z,3.63
2023-01-05T04:06:41.813Z,4.72
2023-01-05T04:09:10.052Z,3.38
2023-01-05T04:11:38.763Z,4.47
2023-01-05T04:16:35.291Z,4.00
2023-01-05T04:21:37.288Z,4.00
2023-01-05T04:24:04.731Z,4.10
2023-01-05T04:26:33.571Z,3.55
2023-01-05T04:29:00.110Z,3.40
2023-01-05T04:31:27.528Z,3.80
2023-01-05T04:33:55.978Z,3.50
2023-01-05T04:36:24.245Z,3.75
2023-01-05T04:38:51.337Z,3.70
2023-01-05T04:41:17.969Z,4.35
2023-01-05T04:43:48.045Z,3.30
2023-01-05T04:46:15.163Z,4.40
2023-01-05T04:48:44.475Z,3.70
2023-01-05T04:51:11.366Z,3.60
2023-01-05T04:53:38.923Z,3.95
2023-01-05T04:56:08.246Z,3.30
2023-01-05T04:58:39.516Z,3.38
2023-01-05T05:01:07.644Z,3.78
2023-01-05T05:03:35.493Z,2.85
2023-01-05T05:06:04.876Z,3.50
2023-01-05T05:08:31.989Z,3.97
2023-01-05T05:11:00.912Z,3.88
2023-01-05T05:13:31.133Z,2.85
2023-01-05T05:15:58.724Z,4.63
2023-01-05T05:18:25.352Z,3.70
2023-01-05T05:20:53.868Z,3.10
2023-01-05T05:23:24.839Z,3.88
2023-01-05T05:25:52.554Z,3.88
2023-01-05T05:30:49.106Z,3.25
2023-01-05T05:33:15.667Z,2.83
2023-01-05T05:35:42.225Z,3.08
2023-01-05T05:38:08.855Z,3.50
2023-01-05T05:40:35.481Z,3.53
2023-01-05T05:43:01.935Z,4.00
2023-01-05T05:45:28.441Z,3.40
2023-01-05T05:47:54.864Z,3.25
2023-01-05T05:50:21.268Z,3.58
2023-01-05T05:52:47.893Z,3.42
2023-01-05T05:55:14.383Z,3.30
2023-01-05T05:57:40.823Z,3.38
2023-01-05T06:00:07.774Z,3.40
2023-01-05T06:02:40.275Z,3.53
2023-01-05T06:05:07.389Z,3.95
2023-01-05T06:07:33.835Z,3.50
2023-01-05T06:10:00.280Z,4.13
2023-01-05T06:12:26.975Z,3.15
2023-01-05T06:14:53.392Z,3.50
2023-01-05T06:17:20.175Z,4.20
2023-01-05T06:19:46.549Z,3.17
2023-01-05T06:22:12.949Z,3.47
2023-01-05T06:24:39.585Z,3.28
2023-01-05T06:27:06.024Z,4.15
2023-01-05T06:29:32.464Z,3.63
2023-01-05T06:31:59.134Z,3.70
2023-01-05T06:34:25.620Z,3.90
2023-01-05T06:36:52.176Z,3.80
2023-01-05T06:39:18.821Z,4.22
2023-01-05T06:41:45.304Z,3.92
2023-01-05T06:44:11.969Z,3.80
2023-01-05T06:46:38.388Z,4.97
2023-01-05T06:49:04.837Z,3.88
2023-01-05T06:51:31.512Z,4.43
2023-01-05T06:53:58.213Z,4.28
2023-01-05T06:56:24.651Z,3.80
2023-01-05T06:58:51.315Z,4.22
2023-01-05T07:01:18.170Z,3.83
2023-01-05T07:03:44.888Z,3.35
2023-01-05T07:06:15.283Z,4.07
2023-01-05T07:08:42.053Z,4.38
2023-01-05T07:11:08.608Z,4.30
2023-01-05T07:13:35.200Z,4.30
2023-01-05T07:16:02.126Z,4.20
2023-01-05T07:18:28.721Z,4.68
2023-01-05T07:20:55.363Z,4.15
2023-01-05T07:23:22.003Z,4.15
2023-01-05T07:25:48.638Z,4.07
2023-01-05T07:28:15.206Z,3.83
2023-01-05T07:30:41.842Z,4.47
2023-01-05T07:33:08.510Z,4.65
2023-01-05T07:35:35.108Z,4.32
2023-01-05T07:38:01.585Z,4.45
2023-01-05T07:40:28.704Z,4.22
2023-01-05T07:42:55.245Z,3.70
2023-01-05T07:45:21.729Z,3.90
2023-01-05T07:47:48.526Z,4.53
2023-01-05T07:50:15.167Z,3.65
2023-01-05T07:52:41.770Z,5.10
2023-01-05T07:55:08.627Z,4.22
2023-01-05T07:57:35.563Z,3.92
2023-01-05T08:00:02.346Z,4.20
2023-01-05T08:02:38.266Z,4.35
2023-01-05T08:05:05.093Z,3.72
2023-01-05T08:07:31.665Z,4.95
2023-01-05T08:10:16.437Z,4.05
2023-01-05T08:13:03.170Z,3.53
2023-01-05T08:15:29.632Z,3.83
2023-01-05T08:17:56.093Z,4.47
2023-01-05T08:20:22.555Z,3.92
2023-01-05T08:22:53.249Z,4.38
2023-01-05T08:25:20.766Z,4.55
2023-01-05T08:27:47.992Z,3.95
2023-01-05T08:30:15.129Z,4.20
2023-01-05T08:32:41.821Z,4.00
2023-01-05T08:35:08.814Z,3.85
2023-01-05T08:37:35.477Z,4.07
2023-01-05T08:40:02.340Z,4.00
2023-01-05T08:42:28.791Z,4.32
2023-01-05T08:44:55.289Z,4.72
2023-01-05T08:47:27.865Z,4.53
2023-01-05T08:49:55.092Z,4.05
2023-01-05T08:52:23.357Z,4.20
2023-01-05T08:54:50.593Z,4.35
2023-01-05T08:57:17.222Z,4.43
2023-01-05T08:59:43.831Z,5.00
2023-01-05T09:02:13.587Z,4.88
2023-01-05T09:04:40.323Z,4.93
2023-01-05T09:07:06.807Z,4.60
2023-01-05T09:09:33.671Z,5.15
2023-01-05T09:12:00.179Z,4.45
2023-01-05T09:14:26.823Z,4.25
2023-01-05T09:17:09.510Z,4.30
2023-01-05T09:19:37.346Z,4.60
2023-01-05T09:22:03.872Z,4.63
2023-01-05T09:24:30.573Z,3.90
2023-01-05T09:26:57.183Z,4.18
2023-01-05T09:29:24.738Z,5.28
2023-01-05T09:31:51.243Z,4.53
2023-01-05T09:34:19.227Z,5.72
2023-01-05T09:36:46.004Z,4.05
2023-01-05T09:39:12.717Z,3.88
2023-01-05T09:41:47.659Z,4.65
2023-01-05T09:46:50.981Z,4.35
2023-01-05T09:49:21.789Z,4.70
2023-01-05T09:51:51.938Z,3.67
2023-01-05T09:54:19.444Z,4.80
2023-01-05T09:59:42.025Z,5.32
2023-01-05T10:02:26.083Z,4.30
2023-01-05T10:04:54.328Z,3.55
2023-01-05T10:07:34.119Z,4.30
2023-01-05T10:10:06.018Z,4.93
2023-01-05T10:13:02.326Z,4.35
2023-01-05T10:15:51.367Z,4.35
2023-01-05T10:18:24.112Z,4.68
2023-01-05T10:21:20.985Z,4.85
2023-01-05T10:24:08.922Z,4.00
2023-01-05T10:27:23.041Z,4.65
2023-01-05T10:29:49.767Z,4.80
2023-01-05T10:32:26.415Z,4.70
2023-01-05T10:34:57.657Z,4.22
2023-01-05T10:37:43.853Z,5.05
2023-01-05T10:40:13.228Z,2.50
2023-01-05T10:43:04.657Z,4.65
2023-01-05T10:45:31.732Z,5.63
2023-01-05T10:47:59.617Z,4.57
2023-01-05T10:50:40.627Z,4.78
2023-01-05T10:53:19.905Z,5.00
2023-01-05T10:56:15.970Z,5.28
2023-01-05T10:58:45.826Z,5.00
2023-01-05T11:01:21.587Z,5.05
2023-01-05T11:04:26.553Z,5.53
2023-01-05T11:06:37.896Z,5.60
2023-01-05T11:09:22.005Z,4.32
2023-01-05T11:12:00.115Z,4.93
2023-01-05T11:14:32.821Z,5.00
2023-01-05T11:17:07.522Z,5.70
2023-01-05T11:19:43.844Z,4.97
2023-01-05T11:22:34.135Z,5.65
2023-01-05T11:25:15.313Z,5.05
2023-01-05T11:27:41.827Z,4.32
2023-01-05T11:30:17.140Z,5.82
2023-01-05T11:32:44.983Z,5.25
2023-01-05T11:35:38.349Z,5.00
2023-01-05T11:38:05.964Z,5.93
2023-01-05T11:40:35.965Z,4.80
2023-01-05T11:43:11.641Z,4.82
2023-01-05T11:45:45.633Z,5.55
2023-01-05T11:48:18.773Z,5.72
2023-01-05T11:50:56.347Z,5.15
2023-01-05T11:53:36.991Z,4.80
2023-01-05T11:56:23.280Z,5.45
2023-01-05T11:58:52.165Z,5.97
2023-01-05T12:01:44.883Z,5.60
2023-01-05T12:04:47.837Z,5.82
2023-01-05T12:07:32.745Z,4.60
2023-01-05T12:10:14.421Z,5.20
2023-01-05T12:13:15.679Z,5.85
2023-01-05T12:15:51.182Z,5.28
2023-01-05T12:18:29.804Z,5.53
2023-01-05T12:21:06.832Z,5.95
2023-01-05T12:23:56.393Z,5.55
2023-01-05T12:26:32.553Z,5.45
2023-01-05T12:35:57.800Z,5.47
2023-01-05T12:38:30.177Z,5.50
2023-01-05T12:40:56.796Z,6.55
2023-01-05T12:43:42.167Z,5.30
2023-01-05T12:46:31.489Z,5.20
2023-01-05T12:49:05.149Z,6.22
2023-01-05T12:51:51.100Z,6.25
2023-01-05T12:54:38.689Z,5.47
2023-01-05T12:57:20.370Z,5.35
2023-01-05T13:00:00.868Z,5.40
2023-01-05T13:02:30.436Z,4.85
2023-01-05T13:05:16.647Z,5.35
2023-01-05T13:07:50.234Z,5.05
2023-01-05T13:10:23.997Z,5.00
2023-01-05T13:12:57.179Z,4.60
2023-01-05T13:15:40.518Z,6.60
2023-01-05T13:18:14.527Z,5.45
2023-01-05T13:20:46.309Z,5.50
2023-01-05T13:23:28.468Z,6.05
2023-01-05T13:26:14.674Z,5.45
2023-01-05T13:28:41.805Z,5.65
2023-01-05T13:31:36.298Z,6.82
2023-01-05T13:34:18.908Z,5.13
2023-01-05T13:37:14.405Z,5.25
2023-01-05T13:40:19.872Z,5.40
2023-01-05T13:42:49.302Z,5.43
2023-01-05T13:45:55.605Z,4.60
2023-01-05T13:49:03.211Z,4.75
2023-01-05T13:51:54.634Z,4.65
2023-01-05T13:54:59.852Z,5.18
2023-01-05T13:57:34.668Z,4.15
2023-01-05T14:00:20.811Z,5.28
2023-01-05T14:03:02.319Z,4.82
2023-01-05T14:08:01.541Z,4.68
2023-01-05T14:10:31.202Z,4.85
2023-01-05T14:12:58.458Z,5.50
2023-01-05T14:15:34.801Z,5.32
2023-01-05T14:18:03.187Z,4.60
2023-01-05T14:20:46.157Z,6.00
2023-01-05T14:23:23.088Z,4.57
2023-01-05T14:26:02.219Z,6.22
2023-01-05T14:28:28.613Z,4.63
2023-01-05T14:31:26.008Z,4.40
2023-01-05T14:33:57.920Z,5.10
2023-01-05T14:36:30.971Z,5.88
2023-01-05T14:39:05.056Z,5.22
2023-01-05T14:41:31.758Z,5.10
2023-01-05T14:44:03.431Z,4.80
2023-01-05T14:46:46.903Z,4.55
2023-01-05T14:49:26.238Z,4.85
2023-01-05T14:51:55.707Z,5.40
2023-01-05T14:54:40.857Z,4.57
2023-01-05T14:57:25.859Z,4.32
2023-01-05T15:00:18.004Z,5.03
2023-01-05T15:03:09.263Z,4.82
2023-01-05T15:05:42.460Z,4.55
2023-01-05T15:08:49.627Z,4.38
2023-01-05T15:14:21.874Z,4.45
2023-01-05T15:16:57.661Z,3.72
2023-01-05T15:19:40.757Z,4.80
2023-01-05T15:22:37.749Z,4.45
2023-01-05T15:25:40.934Z,4.43
2023-01-05T15:28:18.574Z,5.00
2023-01-05T15:30:51.144Z,4.90
2023-01-05T15:33:42.717Z,4.93
2023-01-05T15:36:21.482Z,4.10
2023-01-05T15:38:48.305Z,4.90
2023-01-05T15:41:19.931Z,5.20
2023-01-05T15:43:48.352Z,4.47
2023-01-05T15:46:28.269Z,5.22
2023-01-05T15:48:54.955Z,5.35
2023-01-05T15:51:24.190Z,5.40
2023-01-05T15:53:56.810Z,4.72
2023-01-05T15:56:32.680Z,5.60
2023-01-05T15:58:59.518Z,5.03
2023-01-05T16:01:27.701Z,5.18
2023-01-05T16:04:09.389Z,4.55
2023-01-05T16:06:39.858Z,4.70
2023-01-05T16:09:34.058Z,5.50
2023-01-05T16:12:24.313Z,4.90
2023-01-05T16:15:01.512Z,5.30
2023-01-05T16:17:32.197Z,4.07
2023-01-05T16:20:06.413Z,5.07
2023-01-05T16:22:47.840Z,5.22
2023-01-05T16:25:21.163Z,4.47
2023-01-05T16:28:03.520Z,4.53
2023-01-05T16:30:37.857Z,5.15
2023-01-05T16:33:06.040Z,5.50
2023-01-05T16:35:48.960Z,4.43
2023-01-05T16:38:17.386Z,5.00
2023-01-05T16:40:46.986Z,5.13
2023-01-05T16:43:38.361Z,4.88
2023-01-05T16:46:30.149Z,5.55
2023-01-05T16:49:05.298Z,5.55
2023-01-05T16:51:31.763Z,4.57
2023-01-05T16:54:28.349Z,4.82
2023-01-05T16:57:01.596Z,4.97
2023-01-05T16:59:40.266Z,6.35
2023-01-05T17:02:35.494Z,5.10
2023-01-05T17:05:02.793Z,5.50
2023-01-05T17:07:29.408Z,6.25
2023-01-05T17:09:56.035Z,4.72
2023-01-05T17:12:22.724Z,5.32
2023-01-05T17:14:49.329Z,4.68
2023-01-05T17:17:16.437Z,5.93
2023-01-05T17:19:42.924Z,4.63
2023-01-05T17:22:12.630Z,4.93
2023-01-05T17:24:39.935Z,6.32
2023-01-05T17:27:06.472Z,8.25
2023-01-05T17:29:34.963Z,5.78
2023-01-05T17:32:01.855Z,5.03
2023-01-05T17:34:28.626Z,5.40
2023-01-05T17:36:59.439Z,5.25
2023-01-05T17:39:26.328Z,6.03
2023-01-05T17:41:53.032Z,5.00
2023-01-05T17:44:19.507Z,5.10
2023-01-05T17:46:49.604Z,5.15
2023-01-05T17:49:20.366Z,4.82
2023-01-05T17:51:47.426Z,5.72
2023-01-05T17:54:14.597Z,4.63
2023-01-05T17:56:42.029Z,4.95
2023-01-05T17:59:08.566Z,5.15
2023-01-05T18:01:35.328Z,5.05
2023-01-05T18:04:02.089Z,4.72
2023-01-05T18:06:29.109Z,5.43
2023-01-05T18:08:55.600Z,4.55
2023-01-05T18:11:22.116Z,4.65
2023-01-05T18:13:48.837Z,4.45
2023-01-05T18:16:15.964Z,4.72
2023-01-05T18:18:42.743Z,4.70
2023-01-05T18:21:09.589Z,7.57
2023-01-05T18:23:36.504Z,4.95
2023-01-05T18:26:05.798Z,6.20
2023-01-05T18:28:32.742Z,5.82
2023-01-05T18:31:00.809Z,5.50
2023-01-05T18:33:27.719Z,6.03
2023-01-05T18:38:21.785Z,5.55
2023-01-05T18:40:50.051Z,6.07
2023-01-05T18:43:17.191Z,6.25
2023-01-05T18:45:44.211Z,6.18
2023-01-05T18:48:10.742Z,4.72
2023-01-05T18:50:50.030Z,6.90
2023-01-05T18:53:20.718Z,6.13
2023-01-05T18:55:48.293Z,6.22
2023-01-05T18:58:15.245Z,5.63
2023-01-05T19:00:43.908Z,7.00
2023-01-05T19:05:41.009Z,6.10
2023-01-05T19:08:11.274Z,6.70
2023-01-05T19:10:38.092Z,5.70
2023-01-05T19:13:04.900Z,6.70
2023-01-05T19:15:38.509Z,6.95
2023-01-05T19:18:05.313Z,6.35
2023-01-05T19:20:32.316Z,6.03
2023-01-05T19:23:01.858Z,7.63
2023-01-05T19:25:29.623Z,6.75
2023-01-05T19:27:57.045Z,6.70
2023-01-05T19:30:25.001Z,6.57
2023-01-05T19:32:51.907Z,6.50
2023-01-05T19:35:18.532Z,6.68
2023-01-05T19:37:45.439Z,7.10
2023-01-05T19:40:12.204Z,6.75
2023-01-05T19:42:38.955Z,7.55
2023-01-05T19:45:06.298Z,7.20
2023-01-05T19:47:32.897Z,6.55
2023-01-05T19:49:59.562Z,7.32
2023-01-05T19:52:29.811Z,6.18
2023-01-05T19:54:56.565Z,7.93
2023-01-05T19:57:23.132Z,7.97
2023-01-05T19:59:51.338Z,7.38
2023-01-05T20:02:18.496Z,7.00
2023-01-05T20:04:47.056Z,7.07
2023-01-05T20:07:14.219Z,6.93
2023-01-05T20:09:41.248Z,6.97
2023-01-05T20:12:14.741Z,7.35
2023-01-05T20:14:42.595Z,7.15
2023-01-05T20:17:10.959Z,7.20
2023-01-05T20:19:38.718Z,7.60
2023-01-05T20:22:07.522Z,6.47
2023-01-05T20:24:36.870Z,6.70
2023-01-05T20:27:06.383Z,6.40
2023-01-05T20:29:33.648Z,6.47
2023-01-05T20:32:05.973Z,6.43
2023-01-05T20:34:35.504Z,6.50
2023-01-05T20:37:04.066Z,5.68
2023-01-05T20:39:32.030Z,6.05
2023-01-05T20:42:05.091Z,5.28
2023-01-05T20:44:34.844Z,5.13
2023-01-05T20:47:03.100Z,5.40
2023-01-05T20:49:30.109Z,5.65
2023-01-05T20:51:57.217Z,6.18
2023-01-05T20:54:24.235Z,5.57
2023-01-05T20:56:50.889Z,6.10
2023-01-05T20:59:23.003Z,5.68
2023-01-05T21:01:51.139Z,5.50
2023-01-05T21:04:18.592Z,6.18
2023-01-05T21:06:45.651Z,6.72
2023-01-05T21:09:12.468Z,6.32
2023-01-05T21:11:39.478Z,6.20
2023-01-05T21:14:06.738Z,5.38
2023-01-05T21:16:37.643Z,6.40
2023-01-05T21:19:05.271Z,5.55
2023-01-05T21:21:32.312Z,6.18
2023-01-05T21:23:59.177Z,5.75
2023-01-05T21:26:25.809Z,5.70
2023-01-05T21:28:54.262Z,5.07
2023-01-05T21:31:24.375Z,5.50
2023-01-05T21:33:51.632Z,5.40
2023-01-05T21:36:23.932Z,5.55
2023-01-05T21:39:02.649Z,5.53
2023-01-05T21:41:51.981Z,4.38
2023-01-05T21:44:19.819Z,5.00
2023-01-05T21:46:47.540Z,5.57
2023-01-05T21:49:14.515Z,5.18
2023-01-05T21:52:06.911Z,5.30
2023-01-05T21:54:51.816Z,5.93
2023-01-05T21:57:18.688Z,5.78
2023-01-05T21:59:45.590Z,5.47
2023-01-05T22:02:14.153Z,5.60
2023-01-05T22:07:07.417Z,5.80
2023-01-05T22:09:37.719Z,5.03
2023-01-05T22:12:08.400Z,5.07
2023-01-05T22:14:37.085Z,5.65
2023-01-05T22:17:05.389Z,6.40
2023-01-05T22:19:32.095Z,6.28
2023-01-05T22:21:58.522Z,5.50
2023-01-05T22:24:25.170Z,5.35
2023-01-05T22:26:51.760Z,4.55
2023-01-05T22:29:19.053Z,5.85
2023-01-05T22:31:46.966Z,5.53
2023-01-05T22:34:14.896Z,5.07
2023-01-05T22:36:41.370Z,5.07
2023-01-05T22:39:08.104Z,5.22
2023-01-05T22:41:35.338Z,5.22
2023-01-05T22:44:05.012Z,5.25
2023-01-05T22:46:31.775Z,5.07
2023-01-05T22:48:59.068Z,5.30
2023-01-05T22:51:33.972Z,5.03
2023-01-05T22:54:00.662Z,5.43
2023-01-05T22:56:30.010Z,4.72
2023-01-05T22:58:56.872Z,5.10
2023-01-05T23:01:36.910Z,4.65
2023-01-05T23:04:05.200Z,5.25
2023-01-05T23:06:32.405Z,3.80
2023-01-05T23:08:59.460Z,4.40
2023-01-05T23:11:28.819Z,3.78
2023-01-05T23:13:56.576Z,4.57
2023-01-05T23:16:23.616Z,3.80
2023-01-05T23:18:50.327Z,4.68
2023-01-05T23:21:18.600Z,4.65
2023-01-05T23:23:45.506Z,3.50
2023-01-05T23:26:13.813Z,3.33
2023-01-05T23:28:41.054Z,2.95
2023-01-05T23:31:07.685Z,3.13
2023-01-05T23:33:36.495Z,2.65
2023-01-05T23:36:04.379Z,2.50
2023-01-05T23:38:31.141Z,2.50
2023-01-05T23:40:58.836Z,2.70
2023-01-05T23:43:27.975Z,2.40
2023-01-05T23:46:21.697Z,2.15
2023-01-05T23:48:49.874Z,2.15
2023-01-05T23:51:17.078Z,2.00
2023-01-05T23:53:45.635Z,1.90
2023-01-05T23:58:44.248Z,1.38
